Time;durP1;ratioP1;P1;durP2;ratioP2;P2;SDS_P1;SDS_P2;PMS_P1;PMS_P2;Temp;Humidity;BMP_temperature;BMP_pressure;BME280_temperature;BME280_humidity;BME280_pressure;Samples;Min_cycle;Max_cycle;Signal;HPM_P1;HPM_P2
2022/06/15 00:00:45;;;;;;;5.00;1.70;;;;;;;16.83;69.20;98843.91;5041449;28;20021;-62
2022/06/15 00:03:13;;;;;;;5.35;1.80;;;;;;;17.12;68.63;98891.03;5040804;28;20029;-63
2022/06/15 00:05:39;;;;;;;3.25;1.88;;;;;;;17.13;68.68;98884.84;5056285;28;20036;-63
2022/06/15 00:08:05;;;;;;;3.67;1.90;;;;;;;17.11;68.67;98884.13;5072483;28;20035;-63
2022/06/15 00:10:31;;;;;;;2.80;1.90;;;;;;;17.05;69.02;98877.47;5054552;28;20043;-63
2022/06/15 00:12:57;;;;;;;1.85;1.60;;;;;;;16.96;69.20;98881.50;5038732;28;20095;-63
2022/06/15 00:15:22;;;;;;;2.97;1.92;;;;;;;17.04;68.35;98881.03;5032692;28;20068;-63
2022/06/15 00:17:48;;;;;;;5.50;2.00;;;;;;;17.04;68.60;98894.94;5032961;28;20091;-63
2022/06/15 00:20:13;;;;;;;3.47;1.80;;;;;;;16.89;68.50;98893.28;5032924;28;20390;-63
2022/06/15 00:22:41;;;;;;;1.70;1.52;;;;;;;16.84;68.58;98888.25;5037192;28;20083;-63
2022/06/15 00:25:09;;;;;;;2.55;1.75;;;;;;;16.83;68.56;98878.75;5052514;28;20029;-63
2022/06/15 00:27:35;;;;;;;3.10;1.80;;;;;;;16.99;67.67;98891.78;5052611;28;20033;-63
2022/06/15 00:30:00;;;;;;;2.88;1.83;;;;;;;16.86;68.48;98894.25;5052559;28;20032;-63
2022/06/15 00:32:26;;;;;;;3.38;1.55;;;;;;;16.82;67.90;98897.16;5052501;28;20017;-63
2022/06/15 00:34:51;;;;;;;2.50;1.60;;;;;;;16.84;67.91;98896.09;5052209;28;20040;-62
2022/06/15 00:37:17;;;;;;;3.58;1.92;;;;;;;16.76;68.20;98898.38;5051088;28;20402;-63
2022/06/15 00:39:43;;;;;;;5.28;1.70;;;;;;;16.71;67.95;98905.63;5064381;28;20035;-63
2022/06/15 00:42:12;;;;;;;3.95;1.80;;;;;;;16.46;67.83;98859.19;5072315;28;20070;-63
2022/06/15 00:44:39;;;;;;;2.78;1.95;;;;;;;16.67;68.08;98904.13;5072307;28;20107;-63
2022/06/15 00:47:20;;;;;;;5.70;1.90;;;;;;;16.73;67.86;98914.22;5071364;28;20036;-63
2022/06/15 00:49:52;;;;;;;3.75;1.70;;;;;;;16.47;68.21;98876.56;5072456;28;20107;-63
2022/06/15 00:52:24;;;;;;;2.80;1.48;;;;;;;16.43;68.17;98869.81;5072174;28;20028;-63
2022/06/15 00:54:50;;;;;;;3.55;1.67;;;;;;;16.67;68.21;98907.56;5046702;28;20029;-63
2022/06/15 00:57:17;;;;;;;4.60;1.55;;;;;;;16.65;67.88;98912.06;5048227;28;20025;-63
2022/06/15 00:59:55;;;;;;;4.07;2.13;;;;;;;16.28;68.36;98861.97;5065310;28;20029;-63
2022/06/15 01:02:21;;;;;;;2.38;1.70;;;;;;;16.61;67.56;98899.28;5032542;28;20056;-64
2022/06/15 01:05:01;;;;;;;4.32;1.90;;;;;;;16.36;67.94;98862.34;5051782;28;20029;-63
2022/06/15 01:07:50;;;;;;;2.67;1.60;;;;;;;16.62;67.70;98908.81;5052121;28;20063;-63
2022/06/15 01:10:22;;;;;;;2.75;1.80;;;;;;;16.43;67.66;98914.25;5052326;28;20123;-63
2022/06/15 01:13:21;;;;;;;3.13;1.80;;;;;;;16.45;67.82;98901.97;5064305;28;20032;-63
2022/06/15 01:16:05;;;;;;;1.60;1.50;;;;;;;16.45;68.65;98905.41;5047621;28;20025;-63
2022/06/15 01:18:45;;;;;;;7.50;1.83;;;;;;;16.55;68.59;98910.94;5051776;28;20186;-63
2022/06/15 01:21:31;;;;;;;4.10;2.10;;;;;;;16.22;68.31;98857.09;5071983;28;20029;-63
2022/06/15 01:24:16;;;;;;;2.55;1.92;;;;;;;16.42;68.62;98899.50;5057061;28;20064;-63
2022/06/15 01:27:02;;;;;;;3.33;1.75;;;;;;;16.48;68.30;98907.84;5054783;28;20017;-63
2022/06/15 01:29:50;;;;;;;2.80;1.90;;;;;;;16.48;68.09;98900.00;5068295;28;20024;-63
2022/06/15 01:32:26;;;;;;;1.92;1.65;;;;;;;16.28;68.16;98850.69;5032091;28;20105;-64
2022/06/15 01:35:13;;;;;;;2.03;1.70;;;;;;;16.49;69.05;98896.44;5031565;28;20026;-64
2022/06/15 01:38:20;;;;;;;2.58;1.60;;;;;;;16.14;68.24;98843.63;5050981;28;20528;-63
2022/06/15 01:41:29;;;;;;;4.80;2.00;;;;;;;16.46;68.20;98898.38;5042990;28;20033;-63
2022/06/15 01:44:16;;;;;;;3.35;2.30;;;;;;;16.39;68.70;98893.53;5043572;28;20065;-62
2022/06/15 01:46:46;;;;;;;3.38;2.08;;;;;;;16.17;68.48;98859.13;5037006;28;20057;-62
2022/06/15 01:49:24;;;;;;;2.05;1.75;;;;;;;16.22;68.92;98888.44;5059183;28;20041;-63
2022/06/15 01:51:50;;;;;;;3.50;1.80;;;;;;;16.28;68.74;98892.47;5044096;28;20033;-62
2022/06/15 01:54:26;;;;;;;7.68;2.10;;;;;;;16.23;68.88;98892.72;5059055;28;20042;-64
2022/06/15 01:56:53;;;;;;;5.80;2.50;;;;;;;16.09;69.52;98877.00;5063295;28;20121;-63
2022/06/15 01:59:54;;;;;;;2.80;1.52;;;;;;;16.26;68.86;98891.72;5032831;28;20028;-63
2022/06/15 02:02:41;;;;;;;2.50;1.80;;;;;;;16.23;68.38;98890.09;5051264;28;20090;-63
2022/06/15 02:05:24;;;;;;;2.60;1.90;;;;;;;16.16;69.05;98888.78;5054141;28;20029;-63
2022/06/15 02:08:15;;;;;;;6.22;2.25;;;;;;;16.27;69.02;98889.00;5035192;28;20045;-62
2022/06/15 02:10:53;;;;;;;4.22;1.95;;;;;;;16.33;68.80;98888.66;5032454;28;20051;-63
2022/06/15 02:13:29;;;;;;;8.43;2.35;;;;;;;16.04;69.60;98846.75;5035285;28;20034;-63
2022/06/15 02:16:24;;;;;;;4.55;1.90;;;;;;;16.26;68.41;98878.66;5057952;28;20033;-63
2022/06/15 02:18:51;;;;;;;3.25;2.10;;;;;;;16.36;67.91;98890.25;5047023;28;20021;-63
2022/06/15 02:21:20;;;;;;;2.75;2.00;;;;;;;16.12;68.21;98858.53;5054971;28;20100;-64
2022/06/15 02:23:50;;;;;;;3.05;2.03;;;;;;;16.38;68.56;98897.06;5054916;28;20024;-63
2022/06/15 02:26:18;;;;;;;2.38;1.90;;;;;;;16.33;68.35;98879.97;5054968;28;20037;-63
2022/06/15 02:28:51;;;;;;;3.70;2.60;;;;;;;16.48;68.30;98883.47;5054862;28;20028;-63
2022/06/15 02:31:17;;;;;;;4.65;2.03;;;;;;;16.63;67.76;98893.03;5054786;28;20142;-63
2022/06/15 02:33:51;;;;;;;3.05;1.80;;;;;;;16.58;67.17;98908.13;5055093;28;20055;-63
2022/06/15 02:36:17;;;;;;;4.22;1.95;;;;;;;16.80;66.38;98899.00;5054715;28;20436;-63
2022/06/15 02:38:44;;;;;;;2.38;1.80;;;;;;;16.80;66.03;98899.88;5057000;28;20124;-63
2022/06/15 02:41:10;;;;;;;4.00;1.83;;;;;;;16.82;65.94;98890.16;5073473;28;20551;-63
2022/06/15 02:43:40;;;;;;;3.03;1.80;;;;;;;16.78;65.88;98898.28;5037990;28;20409;-63
2022/06/15 02:46:09;;;;;;;4.22;2.00;;;;;;;16.67;65.70;98899.72;5053027;28;20469;-63
2022/06/15 02:48:35;;;;;;;6.03;1.88;;;;;;;16.66;65.59;98881.53;5054315;28;20517;-64
2022/06/15 02:51:10;;;;;;;8.65;2.35;;;;;;;16.65;65.64;98896.38;5059600;28;20488;-63
2022/06/15 02:53:39;;;;;;;6.78;4.65;;;;;;;16.42;65.30;98894.28;5069866;28;20784;-64
2022/06/15 02:56:07;;;;;;;4.72;1.90;;;;;;;16.49;65.77;98895.59;5034370;28;20068;-63
2022/06/15 02:58:39;;;;;;;3.90;2.15;;;;;;;16.39;64.97;98903.97;5066576;28;20032;-64
2022/06/15 03:01:04;;;;;;;3.30;1.90;;;;;;;16.58;64.95;98899.47;5074471;28;20043;-64
2022/06/15 03:03:31;;;;;;;2.58;1.77;;;;;;;16.62;65.50;98896.56;5065269;28;20135;-64
2022/06/15 03:05:57;;;;;;;3.58;1.85;;;;;;;16.71;65.65;98901.22;5054168;28;20466;-64
2022/06/15 03:08:23;;;;;;;1.98;1.63;;;;;;;16.61;64.60;98902.72;5054161;28;20025;-64
2022/06/15 03:10:49;;;;;;;4.43;2.03;;;;;;;16.71;65.14;98905.63;5072535;28;20457;-64
2022/06/15 03:13:16;;;;;;;3.03;1.80;;;;;;;16.79;65.56;98903.41;5042509;28;20104;-64
2022/06/15 03:15:41;;;;;;;4.07;1.65;;;;;;;16.70;64.45;98896.97;5054968;28;20025;-64
2022/06/15 03:18:07;;;;;;;3.08;2.10;;;;;;;16.74;64.71;98902.84;5073969;28;20029;-63
2022/06/15 03:20:33;;;;;;;4.05;1.77;;;;;;;16.73;63.42;98896.78;5071612;28;20042;-63
2022/06/15 03:22:59;;;;;;;4.78;1.70;;;;;;;16.89;63.32;98894.09;5032615;28;20593;-64
2022/06/15 03:25:25;;;;;;;3.85;1.67;;;;;;;16.82;62.64;98892.75;5033989;28;20048;-63
2022/06/15 03:27:52;;;;;;;2.75;1.80;;;;;;;16.89;63.21;98890.66;5057183;28;20128;-63
2022/06/15 03:30:18;;;;;;;3.53;1.65;;;;;;;16.98;62.65;98900.56;5059501;28;20048;-63
2022/06/15 03:32:44;;;;;;;4.55;1.75;;;;;;;17.03;63.47;98890.66;5038572;28;20475;-64
2022/06/15 03:35:11;;;;;;;5.35;1.70;;;;;;;16.97;62.64;98904.09;5073467;28;20041;-63
2022/06/15 03:37:38;;;;;;;3.80;1.75;;;;;;;17.00;62.90;98890.84;5036621;28;20034;-63
2022/06/15 03:40:06;;;;;;;4.78;1.90;;;;;;;16.73;62.80;98856.69;5059920;28;20044;-63
2022/06/15 03:42:31;;;;;;;4.57;2.10;;;;;;;16.90;63.39;98901.03;5055728;28;20025;-64
2022/06/15 03:44:57;;;;;;;4.60;2.20;;;;;;;16.78;62.63;98890.44;5041653;28;20078;-64
2022/06/15 03:47:23;;;;;;;3.83;2.15;;;;;;;16.72;62.43;98902.94;5033550;28;20048;-63
2022/06/15 03:49:52;;;;;;;4.47;1.90;;;;;;;16.93;62.92;98900.00;5033203;28;20026;-63
2022/06/15 03:52:22;;;;;;;4.13;2.13;;;;;;;16.95;62.46;98889.44;5033145;28;20057;-65
2022/06/15 03:54:47;;;;;;;3.08;1.73;;;;;;;16.84;63.30;98908.34;5041648;28;20398;-64
2022/06/15 03:57:15;;;;;;;3.88;1.70;;;;;;;17.16;63.09;98914.28;5033260;28;20025;-64
2022/06/15 03:59:42;;;;;;;3.80;2.17;;;;;;;17.23;63.02;98897.28;5033146;28;20036;-61
2022/06/15 04:02:07;;;;;;;3.58;1.70;;;;;;;17.32;62.20;98908.13;5033381;28;20033;-64
2022/06/15 04:04:33;;;;;;;4.55;1.77;;;;;;;17.24;61.98;98904.22;5061906;28;20028;-64
2022/06/15 04:06:59;;;;;;;3.08;1.60;;;;;;;17.19;62.15;98910.66;5041064;28;20119;-66
2022/06/15 04:09:26;;;;;;;2.60;1.90;;;;;;;16.76;62.55;98914.06;5048456;28;20466;-64
2022/06/15 04:11:58;;;;;;;7.20;2.10;;;;;;;16.89;62.23;98919.44;5072822;28;20409;-63
2022/06/15 04:14:26;;;;;;;6.03;1.73;;;;;;;16.95;62.89;98911.22;5061644;28;20060;-62
2022/06/15 04:16:54;;;;;;;4.22;1.77;;;;;;;16.98;62.61;98915.41;5052515;28;20108;-64
2022/06/15 04:19:25;;;;;;;4.68;1.67;;;;;;;16.70;63.17;98864.72;5037348;28;20022;-63
2022/06/15 04:21:51;;;;;;;4.47;1.75;;;;;;;16.95;63.29;98907.75;5043669;28;20028;-62
2022/06/15 04:24:18;;;;;;;3.47;1.70;;;;;;;17.02;62.32;98915.13;5034864;28;20484;-63
2022/06/15 04:26:45;;;;;;;2.38;1.50;;;;;;;17.19;62.57;98908.03;5036384;28;20018;-64
2022/06/15 04:29:11;;;;;;;4.03;1.77;;;;;;;17.24;61.58;98913.81;5072640;28;20036;-64
2022/06/15 04:31:38;;;;;;;6.07;1.58;;;;;;;17.28;62.22;98912.69;5036384;28;20474;-63
2022/06/15 04:34:05;;;;;;;4.28;1.73;;;;;;;17.35;62.58;98918.41;5032424;28;20029;-63
2022/06/15 04:36:31;;;;;;;3.67;1.52;;;;;;;17.41;61.56;98926.72;5031953;28;20487;-63
2022/06/15 04:38:57;;;;;;;8.07;1.40;;;;;;;17.48;60.50;98921.09;5032171;28;20038;-63
2022/06/15 04:41:22;;;;;;;4.07;1.30;;;;;;;17.33;59.98;98920.25;5032464;28;20489;-63
2022/06/15 04:43:48;;;;;;;2.88;1.40;;;;;;;17.34;60.16;98917.53;5032493;28;20030;-63
2022/06/15 04:46:14;;;;;;;3.75;1.25;;;;;;;17.27;60.01;98926.72;5049853;28;20444;-65
2022/06/15 04:48:40;;;;;;;3.35;1.20;;;;;;;17.14;60.82;98931.03;5052146;28;20119;-64
2022/06/15 04:51:23;;;;;;;4.20;1.55;;;;;;;16.90;60.45;98884.47;5051814;28;20032;-64
2022/06/15 04:53:50;;;;;;;2.30;1.25;;;;;;;16.99;61.05;98917.94;5054551;28;20056;-64
2022/06/15 04:56:16;;;;;;;3.08;1.40;;;;;;;16.97;61.40;98922.41;5070809;28;20033;-64
2022/06/15 04:58:43;;;;;;;4.07;1.27;;;;;;;16.79;60.63;98920.84;5071826;28;20377;-64
2022/06/15 05:01:11;;;;;;;1.83;1.20;;;;;;;16.60;59.78;98921.13;5071785;28;20492;-63
2022/06/15 05:03:37;;;;;;;5.25;1.20;;;;;;;16.69;60.34;98912.75;5054095;28;20017;-64
2022/06/15 05:06:29;;;;;;;4.70;1.45;;;;;;;16.35;59.62;98870.28;5031790;28;20032;-62
2022/06/15 05:08:55;;;;;;;;;;;;;;;16.51;60.41;98914.66;5032385;28;20113;-65
2022/06/15 05:11:20;;;;;;;1.70;1.10;;;;;;;16.56;61.16;98916.06;5032135;28;20008;-63
2022/06/15 05:13:46;;;;;;;2.10;1.27;;;;;;;16.54;60.49;98906.63;5068696;28;20050;-63
2022/06/15 05:16:11;;;;;;;1.42;1.15;;;;;;;16.55;61.15;98917.00;5071503;28;20021;-63
2022/06/15 05:18:37;;;;;;;4.63;1.30;;;;;;;16.53;60.35;98910.16;5053738;28;20029;-62
2022/06/15 05:21:03;;;;;;;1.63;1.20;;;;;;;16.52;60.96;98908.50;5031912;28;20227;-63
2022/06/15 05:23:29;;;;;;;2.05;1.25;;;;;;;16.64;60.44;98922.63;5042906;28;20029;-64
2022/06/15 05:25:54;;;;;;;2.22;1.02;;;;;;;16.72;59.96;98923.84;5051765;28;20033;-63
2022/06/15 05:28:20;;;;;;;2.15;1.13;;;;;;;16.67;60.07;98930.28;5051563;28;20485;-63
2022/06/15 05:30:45;;;;;;;1.63;1.08;;;;;;;16.59;60.52;98928.13;5051600;28;20437;-63
2022/06/15 05:33:11;;;;;;;3.28;1.08;;;;;;;16.53;60.49;98926.72;5056553;28;20033;-64
2022/06/15 05:35:37;;;;;;;1.77;1.35;;;;;;;16.61;60.65;98928.03;5073927;28;20057;-63
2022/06/15 05:38:03;;;;;;;3.67;1.45;;;;;;;16.46;61.13;98933.22;5035902;28;20036;-63
2022/06/15 05:40:28;;;;;;;1.73;1.10;;;;;;;16.51;60.98;98922.50;5035759;28;20053;-62
2022/06/15 05:42:54;;;;;;;1.45;1.10;;;;;;;16.81;60.08;98937.31;5058077;28;20056;-63
2022/06/15 05:45:20;;;;;;;1.20;1.00;;;;;;;16.89;60.44;98932.50;5062450;28;20046;-64
2022/06/15 05:47:45;;;;;;;4.60;2.17;;;;;;;16.85;60.00;98928.34;5055293;28;20024;-63
2022/06/15 05:50:13;;;;;;;2.58;1.30;;;;;;;16.44;59.81;98889.81;5055288;28;20025;-62
2022/06/15 05:52:39;;;;;;;1.38;1.20;;;;;;;16.76;60.51;98944.56;5054822;28;20085;-64
2022/06/15 05:55:05;;;;;;;2.90;1.10;;;;;;;16.72;60.59;98936.91;5072621;28;20028;-62
2022/06/15 05:57:31;;;;;;;2.10;1.00;;;;;;;16.80;59.70;98935.63;5059764;28;20041;-63
2022/06/15 05:59:58;;;;;;;3.00;1.10;;;;;;;16.45;60.07;98902.78;5041082;28;20091;-63
2022/06/15 06:02:25;;;;;;;1.17;0.90;;;;;;;16.76;60.05;98945.44;5075371;28;20389;-65
2022/06/15 06:04:51;;;;;;;2.35;1.02;;;;;;;16.63;60.34;98931.38;5056403;28;20442;-64
2022/06/15 06:07:19;;;;;;;1.73;1.08;;;;;;;16.53;60.93;98894.47;5069159;28;20021;-63
2022/06/15 06:09:44;;;;;;;4.78;1.10;;;;;;;16.87;59.15;98924.72;5055846;28;20471;-64
2022/06/15 06:12:10;;;;;;;6.28;1.58;;;;;;;16.79;59.99;98923.47;5035099;28;20029;-63
2022/06/15 06:14:38;;;;;;;3.05;1.20;;;;;;;17.14;59.83;98931.84;5035250;28;20029;-64
2022/06/15 06:17:05;;;;;;;2.58;1.00;;;;;;;17.20;60.32;98938.47;5074988;28;20060;-64
2022/06/15 06:19:30;;;;;;;1.30;0.85;;;;;;;17.11;59.20;98931.22;5042936;28;20466;-64
2022/06/15 06:21:56;;;;;;;4.22;1.30;;;;;;;17.28;60.06;98938.03;5035167;28;20047;-64
2022/06/15 06:24:22;;;;;;;3.70;1.20;;;;;;;17.25;58.47;98941.69;5053231;28;20029;-64
2022/06/15 06:26:47;;;;;;;2.97;1.20;;;;;;;17.24;59.46;98935.63;5054573;28;20029;-63
2022/06/15 06:29:15;;;;;;;1.50;1.10;;;;;;;17.31;59.32;98949.13;5054823;28;20029;-63
2022/06/15 06:31:42;;;;;;;1.58;1.15;;;;;;;17.06;58.46;98939.34;5053391;28;20025;-63
2022/06/15 06:34:10;;;;;;;2.53;1.45;;;;;;;17.33;59.35;98946.44;5054768;28;20040;-64
2022/06/15 06:36:41;;;;;;;2.42;1.10;;;;;;;17.37;59.60;98906.91;5062622;28;20441;-63
2022/06/15 06:39:14;;;;;;;3.75;1.40;;;;;;;17.62;59.49;98952.50;5066022;28;20029;-64
2022/06/15 06:41:40;;;;;;;2.60;1.45;;;;;;;17.73;58.31;98936.94;5035951;28;20125;-65
2022/06/15 06:44:07;;;;;;;3.38;0.90;;;;;;;17.94;58.21;98939.16;5074585;28;20032;-64
2022/06/15 06:46:36;;;;;;;4.00;1.10;;;;;;;17.55;57.33;98944.16;5039465;28;20033;-62
2022/06/15 06:49:05;;;;;;;4.07;1.25;;;;;;;17.44;58.39;98902.09;5038135;28;20029;-65
2022/06/15 06:51:31;;;;;;;2.50;1.10;;;;;;;17.72;57.66;98940.50;5046600;28;20021;-63
2022/06/15 06:53:56;;;;;;;3.10;1.30;;;;;;;18.00;57.90;98948.41;5048815;28;20029;-62
2022/06/15 06:56:22;;;;;;;2.20;1.05;;;;;;;18.15;57.61;98936.94;5044130;28;20058;-62
2022/06/15 06:58:48;;;;;;;2.47;1.25;;;;;;;18.26;57.46;98938.88;5042139;28;20052;-63
2022/06/15 07:01:13;;;;;;;1.75;0.90;;;;;;;18.43;56.64;98941.22;5040700;28;20025;-67
2022/06/15 07:03:39;;;;;;;3.58;1.10;;;;;;;18.58;57.92;98943.75;5038500;28;20029;-65
2022/06/15 07:06:06;;;;;;;3.58;1.38;;;;;;;18.37;55.26;98899.69;5033950;28;20025;-66
2022/06/15 07:08:32;;;;;;;1.80;1.33;;;;;;;18.70;55.95;98940.31;5034178;28;20104;-65
2022/06/15 07:10:58;;;;;;;2.33;1.10;;;;;;;18.76;56.99;98955.63;5034055;28;20641;-64
2022/06/15 07:13:24;;;;;;;4.00;1.17;;;;;;;18.58;55.67;98951.63;5063062;28;20470;-65
2022/06/15 07:15:50;;;;;;;1.48;1.00;;;;;;;18.57;55.11;98949.94;5058792;28;20071;-65
2022/06/15 07:18:16;;;;;;;3.17;1.10;;;;;;;18.71;55.04;98954.28;5045190;28;20364;-64
2022/06/15 07:20:43;;;;;;;3.38;1.20;;;;;;;18.45;55.88;98962.94;5037390;28;20040;-65
2022/06/15 07:23:08;;;;;;;2.42;1.10;;;;;;;18.30;55.07;98963.94;5043255;28;20040;-63
2022/06/15 07:25:34;;;;;;;3.55;1.10;;;;;;;18.33;55.77;98966.38;5040192;28;20314;-63
2022/06/15 07:28:02;;;;;;;4.03;1.27;;;;;;;18.39;55.22;98970.38;5038276;28;20600;-63
2022/06/15 07:30:28;;;;;;;1.65;1.05;;;;;;;18.54;54.74;98951.00;5043592;28;20122;-63
2022/06/15 07:32:54;;;;;;;3.17;1.15;;;;;;;18.63;54.07;98973.97;5043275;28;20021;-63
2022/06/15 07:35:24;;;;;;;4.55;1.13;;;;;;;18.43;54.54;98920.25;5047695;28;20080;-63
2022/06/15 07:37:51;;;;;;;2.72;0.90;;;;;;;18.87;53.22;98972.47;5044111;28;20033;-64
2022/06/15 07:40:19;;;;;;;2.00;1.00;;;;;;;18.79;54.30;98976.41;5050225;28;20039;-65
2022/06/15 07:42:45;;;;;;;1.98;0.90;;;;;;;18.57;53.32;98976.16;5042400;28;20590;-63
2022/06/15 07:45:13;;;;;;;1.30;1.00;;;;;;;18.21;54.38;98975.00;5048940;28;20128;-63
2022/06/15 07:50:22;;;;;;;4.28;0.95;;;;;;;18.74;55.48;98975.91;5033582;28;20038;-64
2022/06/15 07:52:51;;;;;;;2.08;0.85;;;;;;;18.53;54.18;98917.03;5068166;28;20047;-64
2022/06/15 07:55:22;;;;;;;4.07;1.10;;;;;;;18.51;53.67;98927.59;5043631;28;20095;-63
2022/06/15 07:57:47;;;;;;;5.32;1.02;;;;;;;19.06;55.12;98966.84;5050908;28;20032;-62
2022/06/15 08:00:14;;;;;;;3.22;1.20;;;;;;;18.92;53.71;98967.75;5067103;28;20466;-62
2022/06/15 08:02:40;;;;;;;1.92;1.10;;;;;;;19.03;53.63;98975.75;5051888;28;20484;-63
2022/06/15 08:05:07;;;;;;;1.17;1.00;;;;;;;19.21;53.35;98964.94;5050116;28;20375;-63
2022/06/15 08:07:34;;;;;;;2.95;0.90;;;;;;;19.12;53.98;98976.91;5068645;28;20042;-64
2022/06/15 08:10:00;;;;;;;2.90;1.05;;;;;;;18.89;53.77;98970.59;5051876;28;20115;-63
2022/06/15 08:12:27;;;;;;;2.22;0.98;;;;;;;19.07;53.74;98969.34;5045882;28;20056;-63
2022/06/15 08:14:56;;;;;;;1.15;0.90;;;;;;;19.09;53.92;98964.81;5043734;28;20025;-63
2022/06/15 08:17:26;;;;;;;2.60;1.00;;;;;;;19.30;54.79;98972.19;5036110;28;20367;-63
2022/06/15 08:19:59;;;;;;;3.45;1.13;;;;;;;19.12;54.19;98940.97;5042992;28;20033;-63
2022/06/15 08:22:26;;;;;;;4.35;1.00;;;;;;;19.31;52.74;98984.34;5052559;28;20048;-63
2022/06/15 08:24:52;;;;;;;3.67;1.13;;;;;;;19.26;53.29;98996.97;5053358;28;20457;-63
2022/06/15 08:27:20;;;;;;;4.43;1.08;;;;;;;19.18;52.32;98937.09;5057640;28;20024;-63
2022/06/15 08:29:47;;;;;;;2.10;0.85;;;;;;;19.11;52.29;98997.06;5033203;28;20110;-63
2022/06/15 08:32:14;;;;;;;2.78;1.02;;;;;;;19.02;52.38;98995.06;5033098;28;20466;-62
2022/06/15 08:34:40;;;;;;;3.30;1.00;;;;;;;19.12;52.26;99000.53;5060044;28;20017;-64
2022/06/15 08:37:09;;;;;;;1.17;0.80;;;;;;;18.82;52.56;98959.63;5053185;28;20053;-63
2022/06/15 08:39:36;;;;;;;4.22;1.08;;;;;;;19.23;53.37;99005.06;5052678;28;20826;-62
2022/06/15 08:42:35;;;;;;;3.35;1.17;;;;;;;19.06;52.31;99007.03;5052774;28;20033;-63
2022/06/15 08:45:33;;;;;;;4.95;1.00;;;;;;;18.89;52.34;98999.47;5054449;28;20032;-63
2022/06/15 08:47:58;;;;;;;1.10;0.80;;;;;;;19.06;53.09;99006.19;5052606;28;20024;-63
2022/06/15 08:50:26;;;;;;;1.92;1.00;;;;;;;18.98;52.98;99011.94;5052756;28;20029;-62
2022/06/15 08:53:17;;;;;;;4.20;1.15;;;;;;;18.83;53.15;99021.66;5070576;28;20490;-62
2022/06/15 08:55:49;;;;;;;2.78;0.80;;;;;;;18.92;52.56;99001.88;5032783;28;20022;-62
2022/06/15 08:58:39;;;;;;;2.20;0.90;;;;;;;19.11;53.56;99004.94;5032676;28;20079;-61
2022/06/15 09:01:15;;;;;;;2.25;0.88;;;;;;;19.18;52.55;99009.78;5043682;28;20025;-62
2022/06/15 09:03:50;;;;;;;1.58;1.20;;;;;;;19.39;52.66;99008.28;5044648;28;20130;-63
2022/06/15 09:06:16;;;;;;;3.22;1.10;;;;;;;19.55;52.37;99001.97;5041270;28;20056;-63
2022/06/15 09:08:41;;;;;;;3.20;1.17;;;;;;;19.57;51.61;99011.44;5071606;28;20112;-63
2022/06/15 09:11:32;;;;;;;2.75;1.15;;;;;;;19.59;52.29;98992.94;5038347;28;20025;-63
2022/06/15 09:14:13;;;;;;;2.50;1.08;;;;;;;19.55;50.90;99008.06;5041670;28;20032;-64
2022/06/15 09:16:58;;;;;;;2.10;0.80;;;;;;;19.25;51.43;98958.53;5050695;28;20535;-63
2022/06/15 09:19:31;;;;;;;2.92;1.20;;;;;;;19.08;52.46;98981.53;5052257;28;20028;-62
2022/06/15 09:21:59;;;;;;;1.00;0.90;;;;;;;19.38;51.97;99006.63;5051090;28;20037;-63
2022/06/15 09:24:37;;;;;;;2.58;1.10;;;;;;;19.27;51.40;98961.91;5041954;28;20104;-63
2022/06/15 09:27:10;;;;;;;1.90;0.90;;;;;;;19.61;51.47;98957.75;5032145;28;20151;-63
2022/06/15 09:29:45;;;;;;;1.95;0.90;;;;;;;20.09;50.83;99006.09;5032491;28;20056;-63
2022/06/15 09:32:21;;;;;;;1.15;0.75;;;;;;;20.08;50.92;98960.56;5047484;28;20075;-63
2022/06/15 09:35:04;;;;;;;5.68;1.10;;;;;;;20.36;50.62;99011.13;5052057;28;20036;-64
2022/06/15 09:37:34;;;;;;;3.20;1.15;;;;;;;19.69;50.82;98982.63;5051973;28;20033;-62
2022/06/15 09:40:01;;;;;;;3.15;1.20;;;;;;;19.94;50.40;99029.91;5052118;28;20486;-63
2022/06/15 09:42:35;;;;;;;1.80;0.93;;;;;;;19.71;50.79;99028.88;5052037;28;20035;-63
2022/06/15 09:45:25;;;;;;;1.90;1.20;;;;;;;19.51;51.34;99022.38;5053377;28;20033;-61
2022/06/15 09:48:26;;;;;;;3.13;1.20;;;;;;;19.47;50.59;98995.47;5051956;28;20099;-63
2022/06/15 09:51:05;;;;;;;2.10;0.93;;;;;;;19.64;51.24;99036.34;5052037;28;20056;-63
2022/06/15 09:53:53;;;;;;;4.60;1.00;;;;;;;19.59;52.03;99027.09;5052154;28;20033;-63
2022/06/15 09:56:20;;;;;;;2.53;1.08;;;;;;;19.67;51.88;99048.44;5031969;28;20459;-63
2022/06/15 09:58:54;;;;;;;2.13;1.08;;;;;;;19.66;51.40;99028.34;5031811;28;20052;-63
2022/06/15 10:01:22;;;;;;;4.53;1.05;;;;;;;19.46;51.86;99027.09;5044275;28;20146;-62
2022/06/15 10:03:51;;;;;;;3.65;1.13;;;;;;;19.41;51.74;99022.19;5043753;28;20113;-64
2022/06/15 10:06:21;;;;;;;3.72;1.10;;;;;;;19.25;52.33;99001.38;5039819;28;20028;-63
2022/06/15 10:08:47;;;;;;;6.57;1.25;;;;;;;19.33;52.97;99028.91;5033177;28;20087;-64
2022/06/15 10:11:17;;;;;;;2.35;1.10;;;;;;;19.31;53.01;99007.97;5070471;28;20097;-63
2022/06/15 10:13:44;;;;;;;3.65;1.20;;;;;;;19.22;51.72;99037.50;5040523;28;20029;-62
2022/06/15 10:16:25;;;;;;;3.08;1.10;;;;;;;19.47;53.13;99034.88;5031848;28;20026;-62
2022/06/15 10:18:53;;;;;;;3.72;1.08;;;;;;;19.34;53.52;99044.56;5030503;28;20030;-63
2022/06/15 10:21:24;;;;;;;2.20;0.93;;;;;;;19.00;52.78;98991.72;5034399;28;20045;-62
2022/06/15 10:24:08;;;;;;;3.35;1.10;;;;;;;19.33;52.56;99040.22;5049727;28;20032;-62
2022/06/15 10:26:41;;;;;;;2.95;1.00;;;;;;;19.40;52.59;99044.13;5055570;28;20044;-62
2022/06/15 10:29:15;;;;;;;4.68;1.05;;;;;;;19.29;52.76;99041.38;5035517;28;20025;-62
2022/06/15 10:31:55;;;;;;;3.40;1.20;;;;;;;18.90;51.85;98998.53;5050926;28;20041;-62
2022/06/15 10:34:34;;;;;;;2.17;1.10;;;;;;;19.17;51.77;99029.09;5041492;28;20040;-62
2022/06/15 10:37:06;;;;;;;3.60;1.35;;;;;;;19.31;52.68;99047.34;5035470;28;20463;-62
2022/06/15 10:39:34;;;;;;;3.72;0.90;;;;;;;19.07;51.47;99039.34;5035177;28;20037;-63
2022/06/15 10:42:05;;;;;;;3.78;1.20;;;;;;;18.96;52.42;99055.84;5035146;28;20143;-64
2022/06/15 10:44:54;;;;;;;3.30;1.30;;;;;;;19.17;52.41;99055.34;5035429;28;20057;-63
2022/06/15 10:47:24;;;;;;;4.15;1.30;;;;;;;19.28;52.00;99052.81;5034984;28;20033;-62
2022/06/15 10:49:55;;;;;;;2.95;0.90;;;;;;;19.51;51.46;99048.66;5067930;28;20078;-62
2022/06/15 10:52:30;;;;;;;5.32;1.10;;;;;;;19.46;50.98;99042.88;5062423;28;20082;-62
2022/06/15 11:04:17;;;;;;;3.60;1.30;;;;;;;19.76;51.95;99042.50;5044231;28;19919;-62
2022/06/15 11:06:50;;;;;;;2.40;1.58;;;;;;;19.81;50.98;99035.19;5034724;28;20029;-62
2022/06/15 11:09:34;;;;;;;4.35;1.17;;;;;;;19.68;51.02;99013.31;5046808;28;20113;-62
2022/06/15 11:12:07;;;;;;;4.72;1.42;;;;;;;20.01;51.82;99051.34;5033525;28;20493;-62
2022/06/15 11:14:56;;;;;;;2.33;1.30;;;;;;;19.97;50.68;99065.66;5034883;28;20479;-62
2022/06/15 11:20:42;;;;;;;3.85;1.10;;;;;;;20.30;49.64;99059.75;5053539;28;20032;-63
2022/06/15 11:23:27;;;;;;;8.15;1.50;;;;;;;20.25;48.98;99063.69;5028049;28;20037;-62
2022/06/15 11:29:09;;;;;;;3.10;1.38;;;;;;;19.97;50.13;99007.81;5054178;28;20498;-62
2022/06/15 11:31:37;;;;;;;5.18;1.48;;;;;;;20.17;49.07;99062.44;5066061;28;20079;-61
2022/06/15 11:34:09;;;;;;;6.22;1.15;;;;;;;20.14;48.99;99053.94;5074164;28;20497;-62
2022/06/15 11:36:56;;;;;;;2.15;1.10;;;;;;;19.96;49.18;99035.06;5061197;28;20037;-63
2022/06/15 11:39:41;;;;;;;2.50;1.10;;;;;;;19.94;48.77;99069.34;5033881;28;20120;-62
2022/06/15 11:42:14;;;;;;;4.07;1.20;;;;;;;19.87;49.87;99048.84;5034042;28;20030;-63
2022/06/15 11:44:44;;;;;;;2.33;1.33;;;;;;;19.67;50.56;99043.16;5034099;28;20815;-63
2022/06/15 11:47:24;;;;;;;6.20;1.40;;;;;;;19.78;50.91;99068.69;5033435;28;20040;-63
2022/06/15 11:49:58;;;;;;;5.53;1.40;;;;;;;19.61;51.24;99043.56;5064869;28;20429;-63
2022/06/15 11:52:39;;;;;;;2.55;1.20;;;;;;;19.85;49.95;99082.28;5073717;28;20102;-63
2022/06/15 11:55:31;;;;;;;2.67;1.10;;;;;;;19.76;50.54;99087.19;5054366;28;20022;-62
2022/06/15 11:58:17;;;;;;;3.88;1.42;;;;;;;19.80;50.62;99082.59;5033687;28;20037;-61
2022/06/15 12:00:43;;;;;;;2.85;1.25;;;;;;;19.85;50.67;99079.66;5040413;28;20049;-61
2022/06/15 12:03:30;;;;;;;2.28;1.30;;;;;;;19.80;50.31;99070.28;5055413;28;20100;-63
2022/06/15 12:06:04;;;;;;;2.95;1.40;;;;;;;19.59;50.94;99027.09;5073427;28;20032;-63
2022/06/15 12:08:55;;;;;;;5.20;1.60;;;;;;;19.78;50.66;99061.66;5073451;28;20103;-63
2022/06/15 12:14:38;;;;;;;8.05;1.50;;;;;;;19.44;50.88;99063.16;5033532;28;20033;-63